Time;durP1;ratioP1;P1;durP2;ratioP2;P2;SDS_P1;SDS_P2;PMS_P1;PMS_P2;Temp;Humidity;BMP_temperature;BMP_pressure;BME280_temperature;BME280_humidity;BME280_pressure;Samples;Min_cycle;Max_cycle;Signal;HPM_P1;HPM_P2
2023/03/13 00:00:31;;;;;;;23.45;13.05;;;;;;;;;;4974166;28;20493;-69
2023/03/13 00:02:57;;;;;;;17.63;11.10;;;;;;;;;;4974171;28;20492;-69
2023/03/13 00:05:23;;;;;;;28.05;13.32;;;;;;;;;;4974244;28;20027;-69
2023/03/13 00:07:48;;;;;;;21.27;12.68;;;;;;;;;;4973803;28;20373;-69
2023/03/13 00:10:15;;;;;;;25.50;13.90;;;;;;;;;;4974007;28;20030;-69
2023/03/13 00:12:40;;;;;;;24.83;14.10;;;;;;;;;;4973998;28;20042;-69
2023/03/13 00:15:06;;;;;;;25.77;13.20;;;;;;;;;;4974192;28;20023;-69
2023/03/13 00:17:32;;;;;;;27.83;13.20;;;;;;;;;;4973976;28;20027;-69
2023/03/13 00:19:57;;;;;;;23.92;13.40;;;;;;;;;;4973878;28;20029;-69
2023/03/13 00:22:23;;;;;;;21.00;11.02;;;;;;;;;;4973743;28;20474;-69
2023/03/13 00:24:48;;;;;;;25.33;13.40;;;;;;;;;;4973867;28;20356;-69
2023/03/13 00:27:14;;;;;;;18.02;10.63;;;;;;;;;;4973912;28;20026;-69
2023/03/13 00:29:39;;;;;;;19.08;11.27;;;;;;;;;;4977123;28;20507;-69
2023/03/13 00:32:05;;;;;;;27.33;11.98;;;;;;;;;;4984213;28;20088;-69
2023/03/13 00:34:31;;;;;;;21.60;11.40;;;;;;;;;;4983174;28;20014;-69
2023/03/13 00:36:56;;;;;;;21.92;12.00;;;;;;;;;;4980991;28;20420;-69
2023/03/13 00:39:22;;;;;;;21.77;11.85;;;;;;;;;;4983961;28;20086;-69
2023/03/13 00:41:47;;;;;;;21.10;11.20;;;;;;;;;;4987734;28;20046;-69
2023/03/13 00:44:13;;;;;;;18.38;10.90;;;;;;;;;;4981409;28;20077;-69
2023/03/13 00:46:38;;;;;;;24.65;12.10;;;;;;;;;;4987627;28;20019;-69
2023/03/13 00:49:05;;;;;;;25.90;11.15;;;;;;;;;;4991653;28;20041;-69
2023/03/13 00:51:30;;;;;;;26.85;12.52;;;;;;;;;;4989029;28;20037;-69
2023/03/13 00:53:59;;;;;;;26.20;12.18;;;;;;;;;;4991786;28;20022;-69
2023/03/13 00:56:25;;;;;;;22.95;11.63;;;;;;;;;;4991712;28;20037;-69
2023/03/13 00:58:50;;;;;;;25.60;12.98;;;;;;;;;;4991725;28;20030;-69
2023/03/13 01:01:18;;;;;;;26.92;13.07;;;;;;;;;;4991223;28;20018;-69
2023/03/13 01:03:46;;;;;;;27.80;12.10;;;;;;;;;;4991625;28;20030;-69
2023/03/13 01:06:14;;;;;;;24.17;11.68;;;;;;;;;;4989100;28;20052;-69
2023/03/13 01:08:39;;;;;;;28.27;12.98;;;;;;;;;;4991726;28;20110;-69
2023/03/13 01:11:08;;;;;;;26.83;12.70;;;;;;;;;;4994132;28;20109;-69
2023/03/13 01:13:34;;;;;;;30.42;12.50;;;;;;;;;;4995448;28;20395;-69
2023/03/13 01:16:06;;;;;;;27.92;13.02;;;;;;;;;;4995549;28;20126;-69
2023/03/13 01:18:37;;;;;;;27.77;12.60;;;;;;;;;;4995828;28;20049;-69
2023/03/13 01:21:03;;;;;;;27.30;13.02;;;;;;;;;;4995699;28;20407;-69
2023/03/13 01:23:29;;;;;;;31.88;13.13;;;;;;;;;;4995566;28;20104;-70
2023/03/13 01:25:55;;;;;;;28.67;13.10;;;;;;;;;;4995655;28;20520;-69
2023/03/13 01:28:21;;;;;;;27.00;12.98;;;;;;;;;;4995508;28;20052;-70
2023/03/13 01:30:47;;;;;;;25.05;12.10;;;;;;;;;;4995369;28;20050;-69
2023/03/13 01:33:12;;;;;;;24.83;12.30;;;;;;;;;;4995405;28;20048;-69
2023/03/13 01:35:37;;;;;;;26.88;11.93;;;;;;;;;;4995258;28;20058;-69
2023/03/13 01:38:03;;;;;;;27.15;12.60;;;;;;;;;;4995426;28;20057;-69
2023/03/13 01:40:28;;;;;;;25.58;12.85;;;;;;;;;;4995365;28;20407;-69
2023/03/13 01:42:56;;;;;;;23.75;11.93;;;;;;;;;;4995335;28;20417;-69
2023/03/13 01:46:00;;;;;;;26.25;13.43;;;;;;;;;;4995280;28;20034;-69
2023/03/13 01:48:40;;;;;;;24.20;12.55;;;;;;;;;;4995094;28;20380;-69
2023/03/13 01:51:12;;;;;;;24.25;12.57;;;;;;;;;;4995026;28;20018;-69
2023/03/13 01:53:41;;;;;;;23.70;10.52;;;;;;;;;;4995165;28;20030;-69
2023/03/13 01:56:12;;;;;;;16.45;9.55;;;;;;;;;;4995363;28;20503;-69
2023/03/13 01:58:38;;;;;;;21.65;11.05;;;;;;;;;;4995255;28;20109;-69
2023/03/13 02:01:04;;;;;;;28.38;13.38;;;;;;;;;;4995032;28;20544;-69
2023/03/13 02:03:30;;;;;;;19.75;11.20;;;;;;;;;;4994959;28;20041;-69
2023/03/13 02:05:58;;;;;;;22.88;12.73;;;;;;;;;;4993589;28;20464;-69
2023/03/13 02:08:31;;;;;;;25.90;13.20;;;;;;;;;;4994916;28;20490;-69
2023/03/13 02:11:35;;;;;;;26.55;13.88;;;;;;;;;;4994956;28;20029;-69
2023/03/13 02:14:03;;;;;;;20.45;12.00;;;;;;;;;;4994831;28;20062;-69
2023/03/13 02:16:31;;;;;;;26.08;12.43;;;;;;;;;;4994525;28;20081;-69
2023/03/13 02:18:56;;;;;;;26.70;11.02;;;;;;;;;;4994475;28;20058;-69
2023/03/13 02:22:00;;;;;;;26.50;11.93;;;;;;;;;;4993436;28;20061;-69
2023/03/13 02:24:38;;;;;;;21.70;11.15;;;;;;;;;;4972790;28;20578;-69
2023/03/13 02:27:04;;;;;;;23.08;12.25;;;;;;;;;;4972820;28;20057;-69
2023/03/13 02:29:30;;;;;;;19.92;10.95;;;;;;;;;;4972671;28;20051;-69
2023/03/13 02:31:55;;;;;;;25.92;11.32;;;;;;;;;;4980787;28;20059;-69
2023/03/13 02:34:26;;;;;;;21.45;11.32;;;;;;;;;;4992046;28;20026;-69
2023/03/13 02:36:52;;;;;;;21.05;9.60;;;;;;;;;;4992730;28;20066;-69
2023/03/13 02:39:20;;;;;;;22.48;10.85;;;;;;;;;;4992876;28;20061;-69
2023/03/13 02:41:46;;;;;;;22.55;11.23;;;;;;;;;;4976452;28;20525;-69
2023/03/13 02:44:11;;;;;;;17.80;10.13;;;;;;;;;;4992703;28;20038;-69
2023/03/13 02:46:51;;;;;;;27.42;11.85;;;;;;;;;;4992725;28;20145;-69
2023/03/13 02:49:25;;;;;;;20.83;10.32;;;;;;;;;;4992385;28;20034;-69
2023/03/13 02:51:53;;;;;;;20.15;10.80;;;;;;;;;;4992502;28;20049;-69
2023/03/13 02:54:25;;;;;;;25.65;11.07;;;;;;;;;;4992573;28;20041;-69
2023/03/13 02:56:56;;;;;;;21.15;11.00;;;;;;;;;;4992262;28;20089;-69
2023/03/13 02:59:22;;;;;;;21.95;9.23;;;;;;;;;;5012058;28;20050;-69
2023/03/13 03:01:51;;;;;;;23.63;9.82;;;;;;;;;;5013860;28;20045;-69
2023/03/13 03:04:21;;;;;;;15.80;9.43;;;;;;;;;;5013981;28;20478;-69
2023/03/13 03:06:47;;;;;;;23.92;10.20;;;;;;;;;;5013597;28;20040;-69
2023/03/13 03:09:13;;;;;;;19.40;9.20;;;;;;;;;;5013295;28;20379;-69
2023/03/13 03:11:38;;;;;;;20.73;10.05;;;;;;;;;;5013243;28;20109;-69
2023/03/13 03:14:04;;;;;;;26.40;9.68;;;;;;;;;;5013238;28;20044;-69
2023/03/13 03:16:30;;;;;;;22.58;9.20;;;;;;;;;;5013327;28;20116;-69
2023/03/13 03:18:56;;;;;;;22.13;9.50;;;;;;;;;;5013711;28;20104;-69
2023/03/13 03:21:22;;;;;;;14.07;7.03;;;;;;;;;;5013876;28;20030;-69
2023/03/13 03:23:49;;;;;;;18.48;9.15;;;;;;;;;;5013656;28;20042;-69
2023/03/13 03:26:15;;;;;;;21.77;9.88;;;;;;;;;;5013644;28;20121;-69
2023/03/13 03:28:40;;;;;;;13.45;6.60;;;;;;;;;;5012319;28;20530;-69
2023/03/13 03:31:08;;;;;;;25.58;10.15;;;;;;;;;;5013152;28;20395;-69
2023/03/13 03:33:34;;;;;;;17.50;8.48;;;;;;;;;;5013157;28;20129;-69
2023/03/13 03:36:06;;;;;;;19.90;10.32;;;;;;;;;;5013614;28;20522;-69
2023/03/13 03:38:31;;;;;;;13.18;7.60;;;;;;;;;;5012854;28;20121;-69
2023/03/13 03:40:57;;;;;;;20.48;9.45;;;;;;;;;;5012710;28;20105;-69
2023/03/13 03:43:23;;;;;;;20.08;9.05;;;;;;;;;;5012700;28;20022;-69
2023/03/13 03:45:48;;;;;;;23.65;9.65;;;;;;;;;;5012454;28;20037;-69
2023/03/13 03:48:14;;;;;;;23.55;9.68;;;;;;;;;;5013013;28;20045;-69
2023/03/13 03:50:39;;;;;;;22.02;9.50;;;;;;;;;;5013175;28;20475;-69
2023/03/13 03:53:05;;;;;;;18.88;9.45;;;;;;;;;;5013189;28;20103;-69
2023/03/13 03:55:30;;;;;;;19.98;9.57;;;;;;;;;;5013114;28;20022;-69
2023/03/13 03:57:56;;;;;;;23.33;9.40;;;;;;;;;;5012961;28;20029;-69
2023/03/13 04:00:21;;;;;;;23.30;8.98;;;;;;;;;;5012812;28;20037;-69
2023/03/13 04:02:47;;;;;;;25.30;9.30;;;;;;;;;;5012828;28;20443;-69
2023/03/13 04:05:12;;;;;;;24.98;9.90;;;;;;;;;;5012990;28;20022;-69
2023/03/13 04:07:38;;;;;;;21.17;9.75;;;;;;;;;;5012912;28;20525;-69
2023/03/13 04:10:04;;;;;;;26.25;8.73;;;;;;;;;;5012349;28;20105;-69
2023/03/13 04:12:29;;;;;;;24.90;9.65;;;;;;;;;;5012326;28;20030;-69
2023/03/13 04:14:55;;;;;;;20.02;8.73;;;;;;;;;;5012021;28;20116;-69
2023/03/13 04:17:20;;;;;;;24.95;9.48;;;;;;;;;;5012359;28;20112;-69
2023/03/13 04:19:45;;;;;;;13.13;7.43;;;;;;;;;;5012589;28;20034;-69
2023/03/13 04:22:11;;;;;;;21.67;9.30;;;;;;;;;;5012739;28;20030;-69
2023/03/13 04:24:36;;;;;;;21.10;8.32;;;;;;;;;;5012829;28;20117;-69
2023/03/13 04:27:05;;;;;;;27.08;10.57;;;;;;;;;;5012582;28;20053;-69
2023/03/13 04:29:31;;;;;;;13.25;5.97;;;;;;;;;;5012219;28;20053;-69
2023/03/13 04:31:56;;;;;;;23.70;7.95;;;;;;;;;;5012483;28;20033;-69
2023/03/13 04:34:22;;;;;;;25.42;10.38;;;;;;;;;;5012541;28;20022;-69
2023/03/13 04:36:47;;;;;;;24.98;9.13;;;;;;;;;;5012485;28;20053;-69
2023/03/13 04:39:13;;;;;;;21.17;7.65;;;;;;;;;;5012140;28;20100;-69
2023/03/13 04:41:38;;;;;;;21.45;9.98;;;;;;;;;;5011988;28;20383;-69
2023/03/13 04:44:04;;;;;;;20.13;8.50;;;;;;;;;;5011708;28;20034;-69
2023/03/13 04:46:29;;;;;;;22.17;9.38;;;;;;;;;;5015326;28;20030;-69
2023/03/13 04:48:55;;;;;;;20.58;8.60;;;;;;;;;;5016368;28;20479;-69
2023/03/13 04:51:20;;;;;;;23.63;8.70;;;;;;;;;;5016569;28;20030;-69
2023/03/13 04:53:45;;;;;;;15.82;7.72;;;;;;;;;;5016489;28;20145;-69
2023/03/13 04:56:25;;;;;;;18.40;7.47;;;;;;;;;;5016537;28;20497;-69
2023/03/13 04:58:50;;;;;;;15.55;7.05;;;;;;;;;;5016238;28;20109;-69
2023/03/13 05:01:16;;;;;;;18.13;7.78;;;;;;;;;;5016321;28;20498;-69
2023/03/13 05:03:41;;;;;;;20.70;8.48;;;;;;;;;;5016241;28;20165;-69
2023/03/13 05:06:07;;;;;;;14.85;6.28;;;;;;;;;;5016002;28;20034;-69
2023/03/13 05:08:32;;;;;;;28.92;7.93;;;;;;;;;;5015678;28;20032;-69
2023/03/13 05:10:58;;;;;;;18.98;8.35;;;;;;;;;;5015520;28;20034;-68
2023/03/13 05:13:23;;;;;;;23.90;9.15;;;;;;;;;;5015033;28;20083;-68
2023/03/13 05:15:49;;;;;;;22.63;8.32;;;;;;;;;;5015710;28;20065;-68
2023/03/13 05:18:14;;;;;;;27.50;7.38;;;;;;;;;;5015983;28;20472;-68
2023/03/13 05:20:40;;;;;;;18.50;8.40;;;;;;;;;;5015991;28;20064;-71
2023/03/13 05:23:05;;;;;;;23.02;8.05;;;;;;;;;;5015846;28;20026;-70
2023/03/13 05:25:31;;;;;;;15.40;7.30;;;;;;;;;;5015839;28;20411;-71
2023/03/13 05:27:57;;;;;;;27.05;8.27;;;;;;;;;;5015201;28;20056;-68
2023/03/13 05:30:22;;;;;;;21.23;8.48;;;;;;;;;;5015512;28;20053;-68
2023/03/13 05:32:48;;;;;;;21.45;8.63;;;;;;;;;;5015415;28;20558;-68
2023/03/13 05:35:13;;;;;;;22.65;7.72;;;;;;;;;;5015820;28;20018;-68
2023/03/13 05:37:39;;;;;;;20.35;7.97;;;;;;;;;;5015530;28;20037;-68
2023/03/13 05:40:05;;;;;;;24.02;7.80;;;;;;;;;;4996508;28;20041;-68
2023/03/13 05:42:30;;;;;;;19.75;6.53;;;;;;;;;;4995112;28;20018;-68
2023/03/13 05:44:56;;;;;;;20.15;7.70;;;;;;;;;;4995247;28;20026;-68
2023/03/13 05:47:21;;;;;;;24.73;7.57;;;;;;;;;;4995489;28;20022;-69
2023/03/13 05:49:46;;;;;;;17.42;7.47;;;;;;;;;;4995669;28;20498;-68
2023/03/13 05:52:12;;;;;;;20.00;7.18;;;;;;;;;;4995628;28;20033;-68
2023/03/13 05:54:37;;;;;;;17.55;7.43;;;;;;;;;;4995833;28;20022;-68
2023/03/13 05:57:03;;;;;;;14.82;5.72;;;;;;;;;;4995028;28;20033;-68
2023/03/13 05:59:28;;;;;;;14.55;6.70;;;;;;;;;;4994390;28;20361;-68
2023/03/13 06:01:54;;;;;;;12.88;5.35;;;;;;;;;;4994165;28;20027;-68
2023/03/13 06:04:20;;;;;;;19.77;6.93;;;;;;;;;;4995354;28;20030;-69
2023/03/13 06:06:46;;;;;;;12.98;5.25;;;;;;;;;;4995321;28;20027;-69
2023/03/13 06:09:11;;;;;;;20.23;5.82;;;;;;;;;;4994816;28;20053;-69
2023/03/13 06:11:37;;;;;;;16.90;6.63;;;;;;;;;;4994528;28;20476;-69
2023/03/13 06:14:02;;;;;;;16.38;6.47;;;;;;;;;;4993414;28;20046;-69
2023/03/13 06:16:28;;;;;;;19.67;6.60;;;;;;;;;;4994487;28;20018;-69
2023/03/13 06:18:53;;;;;;;22.33;6.90;;;;;;;;;;4995229;28;20031;-69
2023/03/13 06:21:18;;;;;;;17.38;6.85;;;;;;;;;;4995268;28;20026;-69
2023/03/13 06:23:44;;;;;;;19.23;6.30;;;;;;;;;;4995135;28;20037;-68
2023/03/13 06:26:09;;;;;;;14.85;5.32;;;;;;;;;;4994816;28;20088;-69
2023/03/13 06:28:35;;;;;;;21.35;6.57;;;;;;;;;;4995040;28;20026;-68
2023/03/13 06:31:02;;;;;;;11.07;4.38;;;;;;;;;;4995610;28;20104;-68
2023/03/13 06:33:27;;;;;;;17.85;6.45;;;;;;;;;;5014677;28;20117;-68
2023/03/13 06:35:53;;;;;;;17.25;6.53;;;;;;;;;;5012588;28;20105;-68
2023/03/13 06:38:18;;;;;;;12.63;5.32;;;;;;;;;;4976159;28;20027;-69
2023/03/13 06:40:44;;;;;;;17.83;5.97;;;;;;;;;;4975559;28;20129;-68
2023/03/13 06:43:09;;;;;;;13.43;5.72;;;;;;;;;;4975743;28;20097;-68
2023/03/13 06:45:36;;;;;;;19.13;5.80;;;;;;;;;;4975643;28;20027;-68
2023/03/13 06:48:02;;;;;;;20.40;6.43;;;;;;;;;;4974485;28;20027;-69
2023/03/13 06:50:28;;;;;;;17.00;5.78;;;;;;;;;;4975584;28;20501;-68
2023/03/13 06:52:53;;;;;;;21.42;6.20;;;;;;;;;;4975584;28;20038;-68
2023/03/13 06:55:19;;;;;;;15.00;4.53;;;;;;;;;;4975509;28;20026;-68
2023/03/13 06:57:51;;;;;;;17.45;5.85;;;;;;;;;;4975507;28;20100;-68
2023/03/13 07:00:18;;;;;;;17.45;5.75;;;;;;;;;;4975440;28;20027;-68
2023/03/13 07:02:43;;;;;;;20.67;6.35;;;;;;;;;;4975446;28;20101;-68
2023/03/13 07:05:09;;;;;;;20.58;6.05;;;;;;;;;;4975358;28;20117;-69
2023/03/13 07:07:34;;;;;;;12.57;4.07;;;;;;;;;;4974699;28;20102;-68
2023/03/13 07:09:59;;;;;;;15.25;4.88;;;;;;;;;;4975056;28;20023;-69
2023/03/13 07:12:25;;;;;;;13.38;5.22;;;;;;;;;;4975351;28;20027;-69
2023/03/13 07:14:50;;;;;;;21.92;5.15;;;;;;;;;;4975059;28;20035;-69
2023/03/13 07:17:16;;;;;;;15.40;5.65;;;;;;;;;;4975157;28;20062;-70
2023/03/13 07:19:41;;;;;;;16.10;5.25;;;;;;;;;;4975133;28;20034;-69
2023/03/13 07:22:06;;;;;;;26.92;6.50;;;;;;;;;;4974953;28;20038;-69
2023/03/13 07:24:32;;;;;;;17.90;4.22;;;;;;;;;;4974783;28;20046;-69
2023/03/13 07:26:57;;;;;;;17.15;4.70;;;;;;;;;;4974813;28;20031;-69
2023/03/13 07:29:23;;;;;;;19.42;4.85;;;;;;;;;;4974617;28;20050;-69
2023/03/13 07:31:48;;;;;;;17.45;4.45;;;;;;;;;;4981648;28;20037;-69
2023/03/13 07:34:14;;;;;;;14.68;3.95;;;;;;;;;;4994159;28;20029;-69
2023/03/13 07:36:40;;;;;;;18.95;4.80;;;;;;;;;;4994277;28;20026;-69
2023/03/13 07:39:06;;;;;;;13.10;3.83;;;;;;;;;;4993672;28;20045;-69
2023/03/13 07:41:32;;;;;;;15.60;4.45;;;;;;;;;;4993956;28;20030;-69
2023/03/13 07:43:57;;;;;;;11.73;3.80;;;;;;;;;;4992799;28;20040;-69
2023/03/13 07:46:23;;;;;;;18.08;4.55;;;;;;;;;;4994003;28;20030;-69
2023/03/13 07:48:49;;;;;;;17.42;4.40;;;;;;;;;;4993950;28;20450;-69
2023/03/13 07:51:20;;;;;;;14.27;4.20;;;;;;;;;;4993966;28;20037;-69
2023/03/13 07:53:49;;;;;;;17.67;5.07;;;;;;;;;;4993735;28;20038;-69
2023/03/13 07:56:19;;;;;;;10.60;4.72;;;;;;;;;;4993727;28;20076;-69
2023/03/13 07:58:45;;;;;;;;;;;;;;;;;;4994305;28;20034;-69
2023/03/13 08:01:14;;;;;;;14.88;3.88;;;;;;;;;;4993734;28;19935;-69
2023/03/13 08:03:40;;;;;;;16.52;5.10;;;;;;;;;;4993544;28;20428;-69
2023/03/13 08:06:10;;;;;;;19.60;4.60;;;;;;;;;;4993144;28;20034;-69
2023/03/13 08:08:37;;;;;;;15.02;4.72;;;;;;;;;;4993373;28;20026;-68
2023/03/13 08:11:04;;;;;;;14.68;4.90;;;;;;;;;;4993548;28;20046;-69
2023/03/13 08:13:30;;;;;;;16.90;4.95;;;;;;;;;;4993379;28;20078;-69
2023/03/13 08:16:05;;;;;;;10.75;4.68;;;;;;;;;;4993593;28;20026;-69
2023/03/13 08:18:33;;;;;;;14.32;4.75;;;;;;;;;;4993118;28;20026;-69
2023/03/13 08:21:07;;;;;;;18.33;5.05;;;;;;;;;;4993184;28;20025;-68
2023/03/13 08:23:33;;;;;;;21.50;5.90;;;;;;;;;;4993577;28;20502;-68
2023/03/13 08:26:14;;;;;;;17.52;4.97;;;;;;;;;;4991928;28;20046;-68
2023/03/13 08:28:40;;;;;;;15.98;5.60;;;;;;;;;;4993424;28;20041;-69
2023/03/13 08:31:13;;;;;;;17.55;4.38;;;;;;;;;;4986074;28;20046;-69
2023/03/13 08:33:41;;;;;;;13.70;4.75;;;;;;;;;;4989231;28;20066;-68
2023/03/13 08:36:11;;;;;;;15.45;4.43;;;;;;;;;;4985835;28;20030;-69
2023/03/13 08:38:37;;;;;;;16.52;5.28;;;;;;;;;;4992942;28;20034;-69
2023/03/13 08:41:03;;;;;;;18.77;5.55;;;;;;;;;;4992945;28;20109;-68
2023/03/13 08:43:28;;;;;;;19.67;4.80;;;;;;;;;;4992888;28;20471;-69
2023/03/13 08:45:57;;;;;;;21.92;5.30;;;;;;;;;;4992691;28;20026;-68
2023/03/13 08:48:22;;;;;;;26.65;8.00;;;;;;;;;;4992822;28;20022;-68
2023/03/13 08:51:00;;;;;;;24.75;6.13;;;;;;;;;;4992579;28;20037;-68
2023/03/13 08:53:26;;;;;;;25.52;6.40;;;;;;;;;;4992962;28;20042;-69
2023/03/13 08:55:52;;;;;;;19.35;5.72;;;;;;;;;;4992719;28;20352;-68
2023/03/13 08:58:18;;;;;;;16.50;5.38;;;;;;;;;;4992802;28;20064;-68
2023/03/13 09:00:43;;;;;;;26.08;6.95;;;;;;;;;;4992357;28;20050;-68
2023/03/13 09:03:08;;;;;;;20.08;5.25;;;;;;;;;;4992655;28;20615;-69
2023/03/13 09:05:36;;;;;;;17.23;5.30;;;;;;;;;;4992220;28;20027;-68
2023/03/13 09:08:02;;;;;;;15.50;5.00;;;;;;;;;;4981801;28;20033;-67
2023/03/13 09:10:27;;;;;;;18.80;4.70;;;;;;;;;;4982860;28;20030;-68
2023/03/13 09:12:52;;;;;;;17.75;4.72;;;;;;;;;;4983367;28;20030;-69
2023/03/13 09:15:18;;;;;;;11.98;4.60;;;;;;;;;;4981415;28;20019;-67
2023/03/13 09:17:43;;;;;;;12.45;4.45;;;;;;;;;;4982784;28;20020;-67
2023/03/13 09:20:10;;;;;;;20.48;5.35;;;;;;;;;;4982418;28;20027;-68
2023/03/13 09:22:36;;;;;;;16.00;5.35;;;;;;;;;;4981373;28;20030;-69
2023/03/13 09:25:01;;;;;;;16.52;5.07;;;;;;;;;;4983046;28;20031;-67
2023/03/13 09:27:27;;;;;;;16.50;4.45;;;;;;;;;;4982603;28;20015;-68
2023/03/13 09:29:53;;;;;;;13.13;4.35;;;;;;;;;;4992424;28;20376;-69
2023/03/13 09:32:19;;;;;;;18.35;5.40;;;;;;;;;;4993030;28;20026;-69
2023/03/13 09:34:45;;;;;;;21.90;6.18;;;;;;;;;;4996333;28;20030;-69
2023/03/13 09:37:11;;;;;;;16.10;4.97;;;;;;;;;;4995033;28;20081;-69
2023/03/13 09:39:36;;;;;;;15.77;4.78;;;;;;;;;;5009027;28;20440;-69
2023/03/13 09:42:19;;;;;;;19.92;5.57;;;;;;;;;;5015534;28;20521;-68
2023/03/13 09:44:52;;;;;;;14.30;4.70;;;;;;;;;;4997487;28;20090;-69
2023/03/13 09:47:36;;;;;;;26.60;5.95;;;;;;;;;;4980220;28;20038;-68
2023/03/13 09:50:13;;;;;;;13.63;4.53;;;;;;;;;;4976252;28;20034;-69
2023/03/13 09:52:39;;;;;;;13.13;4.53;;;;;;;;;;4976494;28;20081;-69
2023/03/13 09:55:25;;;;;;;13.13;4.50;;;;;;;;;;4976446;28;20062;-68
2023/03/13 09:58:27;;;;;;;14.13;4.88;;;;;;;;;;4976140;28;20026;-69
2023/03/13 10:00:53;;;;;;;8.55;4.10;;;;;;;;;;4954450;29;20031;-68
2023/03/13 10:03:29;;;;;;;17.27;4.97;;;;;;;;;;4954575;29;20066;-68
2023/03/13 10:05:58;;;;;;;15.90;4.93;;;;;;;;;;4954523;29;20045;-69
2023/03/13 10:08:26;;;;;;;15.13;5.40;;;;;;;;;;4954260;29;20039;-68
2023/03/13 10:10:57;;;;;;;14.93;5.15;;;;;;;;;;4962060;28;20065;-67
2023/03/13 10:13:37;;;;;;;17.77;5.78;;;;;;;;;;4966068;28;20109;-67
2023/03/13 10:16:35;;;;;;;12.90;5.18;;;;;;;;;;4970945;28;20492;-67
2023/03/13 10:19:12;;;;;;;16.58;4.95;;;;;;;;;;4958621;28;20038;-68
2023/03/13 10:21:40;;;;;;;12.45;5.10;;;;;;;;;;4973542;28;20042;-68
2023/03/13 10:24:44;;;;;;;10.27;4.53;;;;;;;;;;4972783;28;20061;-67
2023/03/13 10:27:12;;;;;;;17.42;5.78;;;;;;;;;;4962303;28;20499;-68
2023/03/13 10:29:38;;;;;;;13.82;6.15;;;;;;;;;;4973198;28;20482;-68
2023/03/13 10:32:06;;;;;;;13.57;6.25;;;;;;;;;;4973226;28;20389;-67
2023/03/13 10:34:54;;;;;;;14.00;4.78;;;;;;;;;;4974442;28;20081;-67
2023/03/13 10:37:26;;;;;;;15.80;5.07;;;;;;;;;;4975687;28;20034;-69
2023/03/13 10:39:52;;;;;;;14.63;5.40;;;;;;;;;;4983275;28;20129;-67
2023/03/13 10:42:27;;;;;;;10.68;4.95;;;;;;;;;;4994121;28;20427;-68
2023/03/13 10:44:59;;;;;;;11.93;4.53;;;;;;;;;;4994991;28;20100;-68
2023/03/13 10:47:24;;;;;;;10.18;5.05;;;;;;;;;;4994730;28;20027;-67
2023/03/13 10:49:56;;;;;;;15.43;6.45;;;;;;;;;;4981512;28;20365;-68
2023/03/13 10:52:29;;;;;;;15.48;5.80;;;;;;;;;;4975413;28;20077;-67
2023/03/13 10:55:06;;;;;;;13.32;4.80;;;;;;;;;;4975360;28;20034;-67
2023/03/13 10:57:33;;;;;;;10.45;4.57;;;;;;;;;;4975200;28;20047;-67
2023/03/13 11:00:05;;;;;;;10.77;4.35;;;;;;;;;;4975159;28;20436;-68
2023/03/13 11:02:37;;;;;;;11.73;5.47;;;;;;;;;;4975091;28;20425;-69
2023/03/13 11:05:22;;;;;;;10.35;4.82;;;;;;;;;;4975022;28;20093;-67
2023/03/13 11:07:48;;;;;;;13.00;5.07;;;;;;;;;;4974819;28;20093;-66
2023/03/13 11:10:24;;;;;;;11.20;4.68;;;;;;;;;;4974533;28;20508;-70
2023/03/13 11:12:54;;;;;;;11.45;4.20;;;;;;;;;;4975080;28;20081;-64
2023/03/13 11:15:29;;;;;;;10.13;4.53;;;;;;;;;;4974825;28;20033;-68
2023/03/13 11:18:05;;;;;;;9.07;3.85;;;;;;;;;;4974813;28;20029;-67
2023/03/13 11:20:34;;;;;;;8.65;3.97;;;;;;;;;;4974909;28;20054;-67
2023/03/13 11:23:03;;;;;;;11.35;4.50;;;;;;;;;;4974822;28;20034;-68
2023/03/13 11:25:42;;;;;;;9.38;4.35;;;;;;;;;;4974715;28;20117;-67
2023/03/13 11:28:25;;;;;;;8.45;3.50;;;;;;;;;;4974769;28;20109;-67
2023/03/13 11:30:57;;;;;;;10.77;4.43;;;;;;;;;;4974218;28;20366;-68
2023/03/13 11:33:46;;;;;;;9.38;3.80;;;;;;;;;;4974563;28;20046;-66
2023/03/13 11:36:17;;;;;;;12.02;3.72;;;;;;;;;;4974564;28;20388;-65
2023/03/13 11:38:48;;;;;;;12.05;3.50;;;;;;;;;;4974580;28;20473;-68
2023/03/13 11:41:43;;;;;;;10.25;2.90;;;;;;;;;;4973239;28;20432;-67
2023/03/13 11:44:15;;;;;;;11.05;3.35;;;;;;;;;;4969291;28;20129;-66
2023/03/13 11:46:52;;;;;;;10.32;3.95;;;;;;;;;;4974352;28;20022;-66
2023/03/13 11:49:40;;;;;;;9.68;3.40;;;;;;;;;;4974442;28;20090;-70
2023/03/13 11:52:16;;;;;;;8.98;3.50;;;;;;;;;;4952722;29;20036;-68
2023/03/13 11:54:50;;;;;;;12.27;4.07;;;;;;;;;;4952653;28;20046;-69
2023/03/13 11:57:28;;;;;;;10.23;3.28;;;;;;;;;;4952736;29;20122;-69
2023/03/13 12:00:17;;;;;;;8.80;3.20;;;;;;;;;;4952391;29;20087;-66
2023/03/13 12:03:07;;;;;;;11.73;3.42;;;;;;;;;;4952741;29;20066;-68
2023/03/13 12:05:41;;;;;;;5.88;3.22;;;;;;;;;;4952060;29;20090;-67
2023/03/13 12:08:17;;;;;;;8.13;3.40;;;;;;;;;;4952650;29;20063;-67
2023/03/13 12:11:00;;;;;;;7.88;3.28;;;;;;;;;;4952715;29;20478;-67
2023/03/13 12:13:35;;;;;;;7.85;3.45;;;;;;;;;;4952410;29;20082;-69
2023/03/13 12:16:10;;;;;;;7.82;3.70;;;;;;;;;;4952520;29;20047;-70
2023/03/13 12:18:39;;;;;;;5.80;2.97;;;;;;;;;;4952479;29;20023;-67
2023/03/13 12:21:27;;;;;;;13.38;3.90;;;;;;;;;;4952335;29;20040;-66
2023/03/13 12:24:30;;;;;;;8.43;3.42;;;;;;;;;;4951836;29;20556;-67
2023/03/13 12:27:12;;;;;;;7.80;3.50;;;;;;;;;;4957190;28;20106;-67
2023/03/13 12:29:54;;;;;;;9.43;4.28;;;;;;;;;;4975642;28;20065;-69
2023/03/13 12:32:54;;;;;;;10.48;3.67;;;;;;;;;;4991219;28;20472;-70
2023/03/13 12:35:32;;;;;;;10.88;3.20;;;;;;;;;;4992976;28;20077;-71
2023/03/13 12:38:15;;;;;;;6.65;3.10;;;;;;;;;;4993211;28;20053;-68
2023/03/13 12:41:07;;;;;;;7.45;3.20;;;;;;;;;;4993085;28;20391;-67
2023/03/13 12:43:35;;;;;;;10.32;3.42;;;;;;;;;;4992708;28;20361;-67
2023/03/13 12:46:16;;;;;;;8.40;3.47;;;;;;;;;;4992939;28;20074;-66
2023/03/13 12:49:17;;;;;;;10.52;4.65;;;;;;;;;;4984480;28;20050;-66
2023/03/13 12:51:51;;;;;;;8.45;2.70;;;;;;;;;;4992789;28;20041;-67
2023/03/13 12:54:30;;;;;;;6.97;3.25;;;;;;;;;;4992739;28;20031;-68
2023/03/13 12:57:09;;;;;;;7.15;3.03;;;;;;;;;;4992539;28;20105;-67
2023/03/13 12:59:39;;;;;;;12.70;3.95;;;;;;;;;;4992687;28;20034;-67
2023/03/13 13:02:31;;;;;;;8.32;2.88;;;;;;;;;;4992656;28;20026;-68
2023/03/13 13:05:00;;;;;;;8.07;3.42;;;;;;;;;;4991696;28;20030;-68
2023/03/13 13:07:32;;;;;;;9.25;2.85;;;;;;;;;;4996062;28;20027;-66
2023/03/13 13:10:09;;;;;;;5.95;2.95;;;;;;;;;;4996680;28;20035;-70
2023/03/13 13:12:40;;;;;;;4.78;2.45;;;;;;;;;;4996356;28;20034;-67
2023/03/13 13:15:26;;;;;;;7.05;2.63;;;;;;;;;;4996525;28;20034;-68
2023/03/13 13:18:25;;;;;;;6.78;2.55;;;;;;;;;;4995151;28;20034;-68
2023/03/13 13:21:06;;;;;;;9.32;2.60;;;;;;;;;;4994860;28;20053;-67
2023/03/13 13:23:33;;;;;;;6.60;2.53;;;;;;;;;;4996297;28;20069;-72
2023/03/13 13:26:23;;;;;;;10.27;2.80;;;;;;;;;;4996019;28;20031;-70
2023/03/13 13:28:49;;;;;;;3.35;1.73;;;;;;;;;;4996363;28;20026;-69
2023/03/13 13:31:36;;;;;;;4.95;2.17;;;;;;;;;;4995849;28;20520;-68
2023/03/13 13:34:01;;;;;;;5.22;2.35;;;;;;;;;;4996018;28;20427;-68
2023/03/13 13:36:28;;;;;;;4.30;2.30;;;;;;;;;;4994851;28;20076;-67
2023/03/13 13:38:55;;;;;;;5.85;2.10;;;;;;;;;;4996094;28;20038;-68
2023/03/13 13:41:27;;;;;;;4.47;1.98;;;;;;;;;;4995835;28;20050;-68
2023/03/13 13:44:20;;;;;;;4.07;1.70;;;;;;;;;;4995803;28;20090;-68
2023/03/13 13:46:46;;;;;;;4.05;1.88;;;;;;;;;;4995631;28;20474;-69
2023/03/13 13:49:19;;;;;;;5.05;1.77;;;;;;;;;;4995878;28;20129;-69
2023/03/13 13:52:00;;;;;;;4.28;2.13;;;;;;;;;;4995685;28;20062;-72
2023/03/13 13:54:41;;;;;;;4.85;2.10;;;;;;;;;;4989852;28;20026;-71
2023/03/13 13:57:11;;;;;;;5.78;2.30;;;;;;;;;;4985199;28;20035;-71
2023/03/13 13:59:42;;;;;;;3.30;1.80;;;;;;;;;;4984942;28;20027;-70
2023/03/13 14:02:07;;;;;;;4.07;1.88;;;;;;;;;;4984397;28;20050;-71
2023/03/13 14:05:14;;;;;;;3.22;1.77;;;;;;;;;;4985972;28;20435;-68
2023/03/13 14:07:40;;;;;;;4.03;1.83;;;;;;;;;;4961938;28;20027;-71
2023/03/13 14:10:34;;;;;;;3.67;1.88;;;;;;;;;;4948138;28;20545;-72
2023/03/13 14:13:02;;;;;;;4.07;1.45;;;;;;;;;;4968076;28;20409;-69
2023/03/13 14:15:29;;;;;;;4.68;1.88;;;;;;;;;;4963429;28;20053;-73
2023/03/13 14:18:00;;;;;;;3.38;1.65;;;;;;;;;;4964314;28;20042;-70
2023/03/13 14:20:37;;;;;;;4.40;1.77;;;;;;;;;;4963548;28;20077;-68
2023/03/13 14:23:08;;;;;;;4.57;1.50;;;;;;;;;;4962991;28;20039;-72
2023/03/13 14:25:48;;;;;;;4.47;2.05;;;;;;;;;;4961998;28;20062;-71
2023/03/13 14:28:21;;;;;;;3.33;1.50;;;;;;;;;;4964897;28;20080;-69
2023/03/13 14:30:48;;;;;;;4.22;1.40;;;;;;;;;;4964923;28;20445;-72
2023/03/13 14:33:14;;;;;;;4.78;1.60;;;;;;;;;;4964807;28;20027;-70
2023/03/13 14:35:40;;;;;;;4.38;2.00;;;;;;;;;;4966865;28;20062;-69
2023/03/13 14:38:06;;;;;;;4.60;1.60;;;;;;;;;;4970798;28;20027;-68
2023/03/13 14:40:36;;;;;;;5.18;1.58;;;;;;;;;;4965280;28;20094;-69
2023/03/13 14:43:03;;;;;;;3.03;1.40;;;;;;;;;;4994893;28;20030;-71
2023/03/13 14:45:38;;;;;;;3.80;1.40;;;;;;;;;;4994691;28;20305;-69
2023/03/13 14:48:19;;;;;;;2.97;1.48;;;;;;;;;;4997296;28;20030;-69